Time,TemperatureF,DewpointF,PressureIn,WindDirection,WindDirectionDegrees,WindSpeedMPH,WindSpeedGustMPH,Humidity,HourlyPrecipIn,Conditions,Clouds,dailyrainin,SolarRadiationWatts/m^2,SoftwareType,DateUTC
2013-01-11 00:04:00,28.0,22.0,-100.00,ENE,60,0.0,2.0,77,0.00,,,0.01,0.000000,,2013-01-11 05:04:00,
2013-01-11 00:33:00,27.0,22.0,-100.00,East,92,2.0,3.0,82,0.00,,,0.01,0.000000,,2013-01-11 05:33:00,
2013-01-11 00:43:00,27.0,22.0,-100.00,East,92,2.0,3.0,82,0.00,,,0.01,0.000000,,2013-01-11 05:43:00,
2013-01-11 00:53:00,27.0,22.0,-100.00,East,92,2.0,3.0,82,0.00,,,0.01,0.000000,,2013-01-11 05:53:00,
2013-01-11 01:03:00,27.0,22.0,-100.00,East,92,2.0,3.0,82,0.00,,,0.01,0.000000,,2013-01-11 06:03:00,
2013-01-11 01:33:00,27.0,22.0,-100.00,East,97,0.0,4.0,81,0.00,,,0.01,0.000000,,2013-01-11 06:33:00,
2013-01-11 01:42:00,27.0,22.0,-100.00,East,97,0.0,4.0,81,0.00,,,0.01,0.000000,,2013-01-11 06:42:00,
2013-01-11 01:52:00,27.0,22.0,-100.00,East,97,0.0,4.0,81,0.00,,,0.01,0.000000,,2013-01-11 06:52:00,
2013-01-11 02:02:00,27.0,22.0,-100.00,East,97,0.0,4.0,81,0.00,,,0.01,0.000000,,2013-01-11 07:02:00,
2013-01-11 02:32:00,27.0,22.0,-100.00,East,89,1.0,3.0,82,0.00,,,-99.99,0.000000,,2013-01-11 07:32:00,
2013-01-11 02:42:00,27.0,22.0,-100.00,East,89,1.0,3.0,82,0.00,,,-99.99,0.000000,,2013-01-11 07:42:00,
2013-01-11 02:52:00,27.0,22.0,-100.00,East,89,1.0,3.0,82,0.00,,,-99.99,0.000000,,2013-01-11 07:52:00,
2013-01-11 03:02:00,27.0,22.0,-100.00,East,89,1.0,3.0,82,0.00,,,-99.99,0.000000,,2013-01-11 08:02:00,
2013-01-11 03:32:00,26.0,21.0,-100.00,NE,51,0.0,3.0,82,0.00,,,0.00,0.000000,,2013-01-11 08:32:00,
2013-01-11 03:42:00,26.0,21.0,-100.00,NE,51,0.0,3.0,82,0.00,,,0.00,0.000000,,2013-01-11 08:42:00,
2013-01-11 03:53:00,26.0,21.0,-100.00,NE,51,0.0,3.0,82,0.00,,,0.00,0.000000,,2013-01-11 08:53:00,
2013-01-11 04:02:00,26.0,21.0,-100.00,NE,51,0.0,3.0,82,0.00,,,0.00,0.000000,,2013-01-11 09:02:00,
2013-01-11 04:32:00,25.0,21.0,-100.00,ENE,57,1.0,4.0,84,0.00,,,0.00,0.000000,,2013-01-11 09:32:00,
2013-01-11 04:42:00,25.0,21.0,-100.00,ENE,57,1.0,4.0,84,0.00,,,0.00,0.000000,,2013-01-11 09:42:00,
2013-01-11 04:52:00,25.0,21.0,-100.00,ENE,57,1.0,4.0,84,0.00,,,0.00,0.000000,,2013-01-11 09:52:00,
2013-01-11 05:02:00,25.0,21.0,-100.00,ENE,57,1.0,4.0,84,0.00,,,0.00,0.000000,,2013-01-11 10:02:00,
2013-01-11 05:32:00,25.0,21.0,-100.00,East,97,1.0,5.0,85,0.00,,,0.00,0.000000,,2013-01-11 10:32:00,
2013-01-11 05:43:00,25.0,21.0,-100.00,East,97,1.0,5.0,85,0.00,,,0.00,0.000000,,2013-01-11 10:43:00,
2013-01-11 05:53:00,25.0,21.0,-100.00,East,97,1.0,5.0,85,0.00,,,0.00,0.000000,,2013-01-11 10:53:00,
2013-01-11 06:03:00,25.0,21.0,-100.00,East,97,1.0,5.0,85,0.00,,,0.00,0.000000,,2013-01-11 11:03:00,
2013-01-11 06:33:00,25.0,21.0,-100.00,ENE,57,0.0,5.0,85,0.00,,,0.00,0.000000,,2013-01-11 11:33:00,
2013-01-11 06:43:00,25.0,21.0,-100.00,ENE,57,0.0,5.0,85,0.00,,,0.00,0.000000,,2013-01-11 11:43:00,
2013-01-11 06:53:00,25.0,21.0,-100.00,ENE,57,0.0,5.0,85,0.00,,,0.00,0.000000,,2013-01-11 11:53:00,
2013-01-11 07:03:00,25.0,21.0,-100.00,ENE,57,0.0,5.0,85,0.00,,,0.00,0.000000,,2013-01-11 12:03:00,
2013-01-11 07:33:00,28.0,23.0,-100.00,East,101,0.0,4.0,82,0.00,,,-99.99,0.000000,,2013-01-11 12:33:00,
2013-01-11 07:43:00,28.0,23.0,-100.00,East,101,0.0,4.0,82,0.00,,,-99.99,0.000000,,2013-01-11 12:43:00,
2013-01-11 07:53:00,28.0,23.0,-100.00,East,101,0.0,4.0,82,0.00,,,-99.99,0.000000,,2013-01-11 12:53:00,
2013-01-11 08:03:00,28.0,23.0,-100.00,East,101,0.0,4.0,82,0.00,,,-99.99,0.000000,,2013-01-11 13:03:00,
2013-01-11 08:33:00,29.0,25.0,-100.00,SSW,196,0.0,3.0,84,0.00,,,-99.99,9.000000,,2013-01-11 13:33:00,
2013-01-11 08:43:00,29.0,25.0,-100.00,SSW,196,0.0,3.0,84,0.00,,,-99.99,9.000000,,2013-01-11 13:43:00,
2013-01-11 08:53:00,29.0,25.0,-100.00,SSW,196,0.0,3.0,84,0.00,,,-99.99,9.000000,,2013-01-11 13:53:00,
2013-01-11 09:03:00,29.0,25.0,-100.00,SSW,196,0.0,3.0,84,0.00,,,-99.99,9.000000,,2013-01-11 14:03:00,
2013-01-11 09:33:00,33.0,26.0,-100.00,NW,311,2.0,3.0,74,0.00,,,0.00,59.000000,,2013-01-11 14:33:00,
2013-01-11 09:43:00,33.0,26.0,-100.00,NW,311,2.0,3.0,74,0.00,,,0.00,59.000000,,2013-01-11 14:43:00,
2013-01-11 09:53:00,33.0,26.0,-100.00,NW,311,2.0,3.0,74,0.00,,,0.00,59.000000,,2013-01-11 14:53:00,
2013-01-11 10:03:00,33.0,26.0,-100.00,NW,311,2.0,3.0,74,0.00,,,0.00,59.000000,,2013-01-11 15:03:00,
2013-01-11 10:33:00,34.0,25.0,-100.00,ENE,70,1.0,5.0,70,0.00,,,0.00,104.000000,,2013-01-11 15:33:00,
2013-01-11 10:43:00,34.0,25.0,-100.00,ENE,70,1.0,5.0,70,0.00,,,0.00,104.000000,,2013-01-11 15:43:00,
2013-01-11 10:53:00,34.0,25.0,-100.00,ENE,70,1.0,5.0,70,0.00,,,0.00,104.000000,,2013-01-11 15:53:00,
2013-01-11 11:03:00,34.0,25.0,-100.00,ENE,70,1.0,5.0,70,0.00,,,0.00,104.000000,,2013-01-11 16:03:00,
2013-01-11 11:33:00,36.0,25.0,-100.00,North,2,0.0,4.0,64,0.00,,,0.00,96.000000,,2013-01-11 16:33:00,
2013-01-11 11:43:00,36.0,25.0,-100.00,North,2,0.0,4.0,64,0.00,,,0.00,96.000000,,2013-01-11 16:43:00,
2013-01-11 11:53:00,36.0,25.0,-100.00,North,2,0.0,4.0,64,0.00,,,0.00,96.000000,,2013-01-11 16:53:00,
2013-01-11 12:03:00,36.0,25.0,-100.00,North,2,0.0,4.0,64,0.00,,,0.00,96.000000,,2013-01-11 17:03:00,
2013-01-11 12:33:00,36.0,25.0,-100.00,North,4,2.0,7.0,64,0.00,,,0.00,102.000000,,2013-01-11 17:33:00,
2013-01-11 12:43:00,36.0,25.0,-100.00,North,4,2.0,7.0,64,0.00,,,0.00,102.000000,,2013-01-11 17:43:00,
2013-01-11 12:53:00,36.0,25.0,-100.00,North,4,2.0,7.0,64,0.00,,,0.00,102.000000,,2013-01-11 17:53:00,
2013-01-11 13:04:00,36.0,25.0,-100.00,North,4,2.0,7.0,64,0.00,,,0.00,102.000000,,2013-01-11 18:04:00,
2013-01-11 13:33:00,38.0,25.0,-100.00,NNW,343,1.0,5.0,59,0.00,,,0.00,104.000000,,2013-01-11 18:33:00,
2013-01-11 13:43:00,38.0,25.0,-100.00,NNW,343,1.0,5.0,59,0.00,,,0.00,104.000000,,2013-01-11 18:43:00,
2013-01-11 13:53:00,38.0,25.0,-100.00,NNW,343,1.0,5.0,59,0.00,,,0.00,104.000000,,2013-01-11 18:53:00,
2013-01-11 14:03:00,38.0,25.0,-100.00,NNW,343,1.0,5.0,59,0.00,,,0.00,104.000000,,2013-01-11 19:03:00,
2013-01-11 14:33:00,36.0,30.0,-100.00,NE,54,1.0,3.0,78,0.03,,,0.03,49.000000,,2013-01-11 19:33:00,
2013-01-11 14:43:00,36.0,30.0,-100.00,NE,54,1.0,3.0,78,0.03,,,0.03,49.000000,,2013-01-11 19:43:00,
2013-01-11 14:54:00,36.0,30.0,-100.00,NE,54,1.0,3.0,78,0.03,,,0.03,49.000000,,2013-01-11 19:54:00,
2013-01-11 15:03:00,36.0,30.0,-100.00,NE,54,1.0,3.0,78,0.03,,,0.03,49.000000,,2013-01-11 20:03:00,
2013-01-11 15:33:00,35.0,32.0,-100.00,NW,310,2.0,4.0,89,0.02,,,0.05,62.000000,,2013-01-11 20:33:00,
2013-01-11 15:43:00,35.0,32.0,-100.00,NW,310,2.0,4.0,89,0.02,,,0.05,62.000000,,2013-01-11 20:43:00,
2013-01-11 15:53:00,35.0,32.0,-100.00,NW,310,2.0,4.0,89,0.02,,,0.05,62.000000,,2013-01-11 20:53:00,
2013-01-11 16:03:00,35.0,32.0,-100.00,NW,310,2.0,4.0,89,0.02,,,0.05,62.000000,,2013-01-11 21:03:00,
2013-01-11 16:33:00,35.0,32.0,-100.00,NNE,20,1.0,4.0,90,0.00,,,0.05,35.000000,,2013-01-11 21:33:00,
2013-01-11 16:43:00,35.0,32.0,-100.00,NNE,20,1.0,4.0,90,0.00,,,0.05,35.000000,,2013-01-11 21:43:00,
2013-01-11 16:53:00,35.0,32.0,-100.00,NNE,20,1.0,4.0,90,0.00,,,0.05,35.000000,,2013-01-11 21:53:00,
2013-01-11 17:03:00,35.0,32.0,-100.00,NNE,20,1.0,4.0,90,0.00,,,0.05,35.000000,,2013-01-11 22:03:00,
2013-01-11 17:33:00,34.0,32.0,-100.00,NNW,340,2.0,6.0,92,0.01,,,0.06,8.000000,,2013-01-11 22:33:00,
2013-01-11 17:43:00,34.0,32.0,-100.00,NNW,340,2.0,6.0,92,0.01,,,0.06,8.000000,,2013-01-11 22:43:00,
2013-01-11 17:53:00,34.0,32.0,-100.00,NNW,340,2.0,6.0,92,0.01,,,0.06,8.000000,,2013-01-11 22:53:00,
2013-01-11 18:02:00,34.0,32.0,-100.00,NNW,340,2.0,6.0,92,0.01,,,0.06,8.000000,,2013-01-11 23:02:00,
2013-01-11 18:33:00,34.0,32.0,-100.00,NNW,330,1.0,5.0,94,0.05,,,0.11,0.000000,,2013-01-11 23:33:00,
2013-01-11 18:43:00,34.0,32.0,-100.00,NNW,330,1.0,5.0,94,0.05,,,0.11,0.000000,,2013-01-11 23:43:00,
2013-01-11 18:54:00,34.0,32.0,-100.00,NNW,330,1.0,5.0,94,0.05,,,0.11,0.000000,,2013-01-11 23:54:00,
2013-01-11 19:03:00,34.0,32.0,-100.00,NNW,330,1.0,5.0,94,0.05,,,0.11,0.000000,,2013-01-12 00:03:00,
2013-01-11 19:33:00,34.0,33.0,-100.00,North,352,1.0,4.0,95,0.04,,,0.15,0.000000,,2013-01-12 00:33:00,
2013-01-11 19:43:00,34.0,33.0,-100.00,North,352,1.0,4.0,95,0.04,,,0.15,0.000000,,2013-01-12 00:43:00,
2013-01-11 19:53:00,34.0,33.0,-100.00,North,352,1.0,4.0,95,0.04,,,0.15,0.000000,,2013-01-12 00:53:00,
2013-01-11 20:03:00,34.0,33.0,-100.00,North,352,1.0,4.0,95,0.04,,,0.15,0.000000,,2013-01-12 01:03:00,
2013-01-11 20:33:00,35.0,34.0,-100.00,NE,49,1.0,7.0,96,0.08,,,0.23,0.000000,,2013-01-12 01:33:00,
2013-01-11 20:43:00,35.0,34.0,-100.00,NE,49,1.0,7.0,96,0.08,,,0.23,0.000000,,2013-01-12 01:43:00,
2013-01-11 20:53:00,35.0,34.0,-100.00,NE,49,1.0,7.0,96,0.08,,,0.23,0.000000,,2013-01-12 01:53:00,
2013-01-11 21:02:00,35.0,34.0,-100.00,NE,49,1.0,7.0,96,0.08,,,0.23,0.000000,,2013-01-12 02:02:00,
2013-01-11 21:33:00,34.0,33.0,-100.00,NNE,30,0.0,3.0,96,0.00,,,0.23,0.000000,,2013-01-12 02:33:00,
2013-01-11 21:43:00,34.0,33.0,-100.00,NNE,30,0.0,3.0,96,0.00,,,0.23,0.000000,,2013-01-12 02:43:00,
2013-01-11 21:53:00,34.0,33.0,-100.00,NNE,30,0.0,3.0,96,0.00,,,0.23,0.000000,,2013-01-12 02:53:00,
2013-01-11 22:03:00,34.0,33.0,-100.00,NNE,30,0.0,3.0,96,0.00,,,0.23,0.000000,,2013-01-12 03:03:00,
2013-01-11 22:33:00,35.0,34.0,-100.00,NNE,20,1.0,4.0,96,0.00,,,0.23,0.000000,,2013-01-12 03:33:00,
2013-01-11 22:43:00,35.0,34.0,-100.00,NNE,20,1.0,4.0,96,0.00,,,0.23,0.000000,,2013-01-12 03:43:00,
2013-01-11 22:53:00,35.0,34.0,-100.00,NNE,20,1.0,4.0,96,0.00,,,0.23,0.000000,,2013-01-12 03:53:00,
2013-01-11 23:02:00,35.0,34.0,-100.00,NNE,20,1.0,4.0,96,0.00,,,0.23,0.000000,,2013-01-12 04:02:00,
2013-01-11 23:33:00,35.0,34.0,-100.00,ESE,112,2.0,4.0,96,0.02,,,0.25,0.000000,,2013-01-12 04:33:00,
2013-01-11 23:43:00,35.0,34.0,-100.00,ESE,112,2.0,4.0,96,0.02,,,0.25,0.000000,,2013-01-12 04:43:00,
2013-01-11 23:52:00,35.0,34.0,-100.00,ESE,112,2.0,4.0,96,0.02,,,0.25,0.000000,,2013-01-12 04:52:00,